sensor_id;sensor_type;location;lat;lon;timestamp;temperature;humidity
65568;DHT22;52211;50.154;8.682;2023-12-28T08:53:46;9.90;71.40
65568;DHT22;52211;50.154;8.682;2023-12-28T08:56:20;10.10;72.30
65568;DHT22;52211;50.154;8.682;2023-12-28T08:58:50;10.30;72.10
65568;DHT22;52211;50.154;8.682;2023-12-28T09:01:22;10.60;71.60
65568;DHT22;52211;50.154;8.682;2023-12-28T09:03:56;10.90;71.50
65568;DHT22;52211;50.154;8.682;2023-12-28T09:06:23;11.10;71.20
65568;DHT22;52211;50.154;8.682;2023-12-28T09:08:51;11.20;70.90
65568;DHT22;52211;50.154;8.682;2023-12-28T09:11:19;11.30;70.70
65568;DHT22;52211;50.154;8.682;2023-12-28T09:13:49;11.50;71.20
65568;DHT22;52211;50.154;8.682;2023-12-28T09:16:16;11.60;70.40
65568;DHT22;52211;50.154;8.682;2023-12-28T09:18:47;11.70;70.30
65568;DHT22;52211;50.154;8.682;2023-12-28T09:21:17;11.80;70.20
65568;DHT22;52211;50.154;8.682;2023-12-28T09:23:47;11.90;70.20
65568;DHT22;52211;50.154;8.682;2023-12-28T09:26:20;11.90;70.10
65568;DHT22;52211;50.154;8.682;2023-12-28T09:28:49;12.00;70.00
65568;DHT22;52211;50.154;8.682;2023-12-28T09:31:16;12.00;69.80
65568;DHT22;52211;50.154;8.682;2023-12-28T09:33:43;12.10;69.80
65568;DHT22;52211;50.154;8.682;2023-12-28T09:36:10;12.20;69.70
65568;DHT22;52211;50.154;8.682;2023-12-28T09:38:39;12.20;69.60
65568;DHT22;52211;50.154;8.682;2023-12-28T09:41:12;12.20;69.50
65568;DHT22;52211;50.154;8.682;2023-12-28T09:44:06;12.30;69.40
65568;DHT22;52211;50.154;8.682;2023-12-28T09:46:41;12.30;69.80
65568;DHT22;52211;50.154;8.682;2023-12-28T09:49:11;12.30;69.20
65568;DHT22;52211;50.154;8.682;2023-12-28T09:51:38;12.40;69.10
65568;DHT22;52211;50.154;8.682;2023-12-28T09:54:05;12.40;69.10
65568;DHT22;52211;50.154;8.682;2023-12-28T09:56:33;12.40;69.10
65568;DHT22;52211;50.154;8.682;2023-12-28T09:59:02;12.50;69.10
65568;DHT22;52211;50.154;8.682;2023-12-28T10:01:40;12.50;69.00
65568;DHT22;52211;50.154;8.682;2023-12-28T10:04:12;12.50;68.80
65568;DHT22;52211;50.154;8.682;2023-12-28T10:06:39;12.50;68.80
65568;DHT22;52211;50.154;8.682;2023-12-28T10:09:08;12.60;68.70
65568;DHT22;52211;50.154;8.682;2023-12-28T10:11:36;12.50;68.70
65568;DHT22;52211;50.154;8.682;2023-12-28T10:14:10;12.60;68.70
65568;DHT22;52211;50.154;8.682;2023-12-28T10:16:40;12.60;68.70
65568;DHT22;52211;50.154;8.682;2023-12-28T10:19:10;12.60;68.50
65568;DHT22;52211;50.154;8.682;2023-12-28T10:21:42;12.70;68.50
65568;DHT22;52211;50.154;8.682;2023-12-28T10:24:13;12.70;68.50
65568;DHT22;52211;50.154;8.682;2023-12-28T10:26:40;12.70;68.50
65568;DHT22;52211;50.154;8.682;2023-12-28T10:29:07;12.70;68.40
65568;DHT22;52211;50.154;8.682;2023-12-28T10:31:37;12.80;68.20
65568;DHT22;52211;50.154;8.682;2023-12-28T10:34:09;12.80;68.20
65568;DHT22;52211;50.154;8.682;2023-12-28T10:36:36;12.80;68.10
65568;DHT22;52211;50.154;8.682;2023-12-28T10:39:12;12.90;68.10
65568;DHT22;52211;50.154;8.682;2023-12-28T10:41:48;12.90;68.10
65568;DHT22;52211;50.154;8.682;2023-12-28T10:44:20;12.90;68.00
65568;DHT22;52211;50.154;8.682;2023-12-28T10:46:54;13.00;67.90
65568;DHT22;52211;50.154;8.682;2023-12-28T10:49:30;13.00;68.00
65568;DHT22;52211;50.154;8.682;2023-12-28T10:52:06;13.00;67.90
65568;DHT22;52211;50.154;8.682;2023-12-28T10:54:44;13.10;67.80
65568;DHT22;52211;50.154;8.682;2023-12-28T11:03:03;13.30;67.70
65568;DHT22;52211;50.154;8.682;2023-12-28T11:05:33;13.40;67.60
65568;DHT22;52211;50.154;8.682;2023-12-28T11:08:02;13.50;67.70
65568;DHT22;52211;50.154;8.682;2023-12-28T11:10:33;13.60;67.50
65568;DHT22;52211;50.154;8.682;2023-12-28T11:13:02;13.70;67.40
65568;DHT22;52211;50.154;8.682;2023-12-28T11:15:32;13.70;66.90
65568;DHT22;52211;50.154;8.682;2023-12-28T11:18:01;13.70;66.80
65568;DHT22;52211;50.154;8.682;2023-12-28T11:20:37;13.70;66.60
65568;DHT22;52211;50.154;8.682;2023-12-28T11:23:06;13.70;66.40
65568;DHT22;52211;50.154;8.682;2023-12-28T11:25:36;13.80;66.40
65568;DHT22;52211;50.154;8.682;2023-12-28T11:28:10;13.80;66.40
65568;DHT22;52211;50.154;8.682;2023-12-28T11:30:38;13.80;65.70
65568;DHT22;52211;50.154;8.682;2023-12-28T11:33:07;13.80;66.40
65568;DHT22;52211;50.154;8.682;2023-12-28T11:35:40;13.80;66.40
65568;DHT22;52211;50.154;8.682;2023-12-28T11:38:09;13.80;66.40
65568;DHT22;52211;50.154;8.682;2023-12-28T11:40:49;13.90;66.40
65568;DHT22;52211;50.154;8.682;2023-12-28T11:43:21;13.90;65.80
65568;DHT22;52211;50.154;8.682;2023-12-28T11:45:55;13.90;66.30
65568;DHT22;52211;50.154;8.682;2023-12-28T11:48:25;14.00;66.30
65568;DHT22;52211;50.154;8.682;2023-12-28T11:51:00;14.10;66.30
65568;DHT22;52211;50.154;8.682;2023-12-28T11:53:34;14.10;66.00
65568;DHT22;52211;50.154;8.682;2023-12-28T11:56:02;14.20;66.20
65568;DHT22;52211;50.154;8.682;2023-12-28T11:58:30;14.20;66.10
65568;DHT22;52211;50.154;8.682;2023-12-28T12:00:57;14.30;66.10
65568;DHT22;52211;50.154;8.682;2023-12-28T12:03:25;14.40;66.00
65568;DHT22;52211;50.154;8.682;2023-12-28T12:05:53;14.40;65.80
65568;DHT22;52211;50.154;8.682;2023-12-28T12:08:26;14.50;65.60
65568;DHT22;52211;50.154;8.682;2023-12-28T12:11:07;14.60;65.60
65568;DHT22;52211;50.154;8.682;2023-12-28T12:13:34;14.70;65.20
65568;DHT22;52211;50.154;8.682;2023-12-28T12:16:03;14.90;65.90
65568;DHT22;52211;50.154;8.682;2023-12-28T12:18:39;15.10;66.30
65568;DHT22;52211;50.154;8.682;2023-12-28T12:21:06;15.50;66.30
65568;DHT22;52211;50.154;8.682;2023-12-28T12:23:37;15.90;66.60
65568;DHT22;52211;50.154;8.682;2023-12-28T12:26:07;16.40;66.40
65568;DHT22;52211;50.154;8.682;2023-12-28T12:28:37;16.80;65.70
65568;DHT22;52211;50.154;8.682;2023-12-28T12:31:09;17.30;65.50
65568;DHT22;52211;50.154;8.682;2023-12-28T12:33:37;17.70;64.70
65568;DHT22;52211;50.154;8.682;2023-12-28T12:36:11;18.10;64.90
65568;DHT22;52211;50.154;8.682;2023-12-28T12:38:39;18.40;63.40
65568;DHT22;52211;50.154;8.682;2023-12-28T12:41:11;18.70;62.80
65568;DHT22;52211;50.154;8.682;2023-12-28T12:43:41;18.90;62.70
65568;DHT22;52211;50.154;8.682;2023-12-28T12:46:10;19.20;61.90
65568;DHT22;52211;50.154;8.682;2023-12-28T12:48:42;19.20;61.10
65568;DHT22;52211;50.154;8.682;2023-12-28T12:51:23;19.40;61.00
65568;DHT22;52211;50.154;8.682;2023-12-28T12:53:59;19.40;60.60
65568;DHT22;52211;50.154;8.682;2023-12-28T12:56:32;19.30;58.10
65568;DHT22;52211;50.154;8.682;2023-12-28T12:59:03;19.20;59.70
65568;DHT22;52211;50.154;8.682;2023-12-28T13:01:34;19.10;59.30
65568;DHT22;52211;50.154;8.682;2023-12-28T13:04:02;19.10;59.10
65568;DHT22;52211;50.154;8.682;2023-12-28T13:06:29;19.20;59.10
65568;DHT22;52211;50.154;8.682;2023-12-28T13:08:56;19.10;59.00
65568;DHT22;52211;50.154;8.682;2023-12-28T13:11:23;19.00;59.10
65568;DHT22;52211;50.154;8.682;2023-12-28T13:13:53;18.80;59.20
65568;DHT22;52211;50.154;8.682;2023-12-28T13:16:22;18.70;58.80
65568;DHT22;52211;50.154;8.682;2023-12-28T13:18:49;18.50;58.50
65568;DHT22;52211;50.154;8.682;2023-12-28T13:21:16;18.20;58.60
65568;DHT22;52211;50.154;8.682;2023-12-28T13:23:44;17.90;58.20
65568;DHT22;52211;50.154;8.682;2023-12-28T13:26:13;17.70;58.50
65568;DHT22;52211;50.154;8.682;2023-12-28T13:28:44;17.40;58.60
65568;DHT22;52211;50.154;8.682;2023-12-28T13:31:14;17.20;58.50
65568;DHT22;52211;50.154;8.682;2023-12-28T13:33:43;16.90;59.40
65568;DHT22;52211;50.154;8.682;2023-12-28T13:36:10;16.70;58.90
65568;DHT22;52211;50.154;8.682;2023-12-28T13:38:37;16.50;59.10
65568;DHT22;52211;50.154;8.682;2023-12-28T13:41:07;16.30;59.40
65568;DHT22;52211;50.154;8.682;2023-12-28T13:43:37;16.10;59.60
65568;DHT22;52211;50.154;8.682;2023-12-28T13:46:04;16.00;59.70
65568;DHT22;52211;50.154;8.682;2023-12-28T13:48:33;15.90;59.70
65568;DHT22;52211;50.154;8.682;2023-12-28T13:51:01;15.80;59.90
65568;DHT22;52211;50.154;8.682;2023-12-28T13:53:33;15.60;60.00
65568;DHT22;52211;50.154;8.682;2023-12-28T13:56:09;15.50;60.20
65568;DHT22;52211;50.154;8.682;2023-12-28T13:58:36;15.50;60.20
65568;DHT22;52211;50.154;8.682;2023-12-28T14:01:03;15.20;60.20
65568;DHT22;52211;50.154;8.682;2023-12-28T14:03:35;15.10;60.40
65568;DHT22;52211;50.154;8.682;2023-12-28T14:06:02;15.00;60.60
65568;DHT22;52211;50.154;8.682;2023-12-28T14:08:29;14.90;60.70
65568;DHT22;52211;50.154;8.682;2023-12-28T14:11:01;14.80;60.80
65568;DHT22;52211;50.154;8.682;2023-12-28T14:13:30;14.80;61.00
65568;DHT22;52211;50.154;8.682;2023-12-28T14:15:57;14.70;61.10
65568;DHT22;52211;50.154;8.682;2023-12-28T14:18:27;14.60;61.20
65568;DHT22;52211;50.154;8.682;2023-12-28T14:20:59;14.60;61.30
65568;DHT22;52211;50.154;8.682;2023-12-28T14:23:26;14.40;61.20
65568;DHT22;52211;50.154;8.682;2023-12-28T14:25:54;14.40;62.00
65568;DHT22;52211;50.154;8.682;2023-12-28T14:28:23;14.30;61.50
65568;DHT22;52211;50.154;8.682;2023-12-28T14:30:53;14.30;61.60
65568;DHT22;52211;50.154;8.682;2023-12-28T14:33:21;14.20;61.70
65568;DHT22;52211;50.154;8.682;2023-12-28T14:35:48;14.20;61.90
65568;DHT22;52211;50.154;8.682;2023-12-28T14:38:15;14.10;61.90
65568;DHT22;52211;50.154;8.682;2023-12-28T14:40:45;14.00;62.00
65568;DHT22;52211;50.154;8.682;2023-12-28T14:43:12;14.00;62.10
65568;DHT22;52211;50.154;8.682;2023-12-28T14:45:42;13.90;62.10
65568;DHT22;52211;50.154;8.682;2023-12-28T14:48:09;13.80;62.20
65568;DHT22;52211;50.154;8.682;2023-12-28T14:50:35;13.80;62.40
65568;DHT22;52211;50.154;8.682;2023-12-28T14:53:07;13.70;62.50
65568;DHT22;52211;50.154;8.682;2023-12-28T14:55:40;13.70;62.60
65568;DHT22;52211;50.154;8.682;2023-12-28T14:58:09;13.60;62.70
65568;DHT22;52211;50.154;8.682;2023-12-28T15:00:38;13.60;62.80
65568;DHT22;52211;50.154;8.682;2023-12-28T15:03:05;13.60;62.90
65568;DHT22;52211;50.154;8.682;2023-12-28T15:05:33;13.50;63.00
65568;DHT22;52211;50.154;8.682;2023-12-28T15:07:59;13.50;63.20
65568;DHT22;52211;50.154;8.682;2023-12-28T15:10:27;13.40;63.20
65568;DHT22;52211;50.154;8.682;2023-12-28T15:12:54;13.40;63.20
65568;DHT22;52211;50.154;8.682;2023-12-28T15:15:22;13.40;63.30
65568;DHT22;52211;50.154;8.682;2023-12-28T15:17:49;13.40;63.40
65568;DHT22;52211;50.154;8.682;2023-12-28T15:20:22;13.40;63.50
65568;DHT22;52211;50.154;8.682;2023-12-28T15:22:55;13.40;63.60
65568;DHT22;52211;50.154;8.682;2023-12-28T15:25:25;13.40;63.60
65568;DHT22;52211;50.154;8.682;2023-12-28T15:27:57;13.30;63.70
65568;DHT22;52211;50.154;8.682;2023-12-28T15:30:29;13.40;63.90
65568;DHT22;52211;50.154;8.682;2023-12-28T15:32:56;13.30;63.90
65568;DHT22;52211;50.154;8.682;2023-12-28T15:35:23;13.30;63.90
65568;DHT22;52211;50.154;8.682;2023-12-28T15:37:52;13.30;64.00
65568;DHT22;52211;50.154;8.682;2023-12-28T15:40:23;13.20;63.90
65568;DHT22;52211;50.154;8.682;2023-12-28T15:42:50;13.30;64.00
65568;DHT22;52211;50.154;8.682;2023-12-28T15:45:21;13.20;64.00
65568;DHT22;52211;50.154;8.682;2023-12-28T15:47:50;13.20;64.20
65568;DHT22;52211;50.154;8.682;2023-12-28T15:50:20;13.20;64.20
65568;DHT22;52211;50.154;8.682;2023-12-28T15:52:51;13.30;64.30
65568;DHT22;52211;50.154;8.682;2023-12-28T15:55:21;13.20;64.30
65568;DHT22;52211;50.154;8.682;2023-12-28T15:57:48;13.10;64.30
65568;DHT22;52211;50.154;8.682;2023-12-28T16:00:18;13.20;64.40
65568;DHT22;52211;50.154;8.682;2023-12-28T16:02:45;13.10;64.40
65568;DHT22;52211;50.154;8.682;2023-12-28T16:05:12;13.20;64.40
65568;DHT22;52211;50.154;8.682;2023-12-28T16:07:41;13.20;64.40
65568;DHT22;52211;50.154;8.682;2023-12-28T16:10:08;13.10;64.40
65568;DHT22;52211;50.154;8.682;2023-12-28T16:12:38;13.10;64.40
65568;DHT22;52211;50.154;8.682;2023-12-28T16:15:08;13.10;64.40
65568;DHT22;52211;50.154;8.682;2023-12-28T16:17:35;13.10;64.40
65568;DHT22;52211;50.154;8.682;2023-12-28T16:20:04;13.10;64.40
65568;DHT22;52211;50.154;8.682;2023-12-28T16:22:38;13.00;64.40
65568;DHT22;52211;50.154;8.682;2023-12-28T16:25:06;13.00;64.40
65568;DHT22;52211;50.154;8.682;2023-12-28T16:27:33;13.00;64.40
65568;DHT22;52211;50.154;8.682;2023-12-28T16:30:02;13.00;64.40
65568;DHT22;52211;50.154;8.682;2023-12-28T16:32:31;12.90;64.40
65568;DHT22;52211;50.154;8.682;2023-12-28T16:35:00;12.90;64.40
65568;DHT22;52211;50.154;8.682;2023-12-28T16:37:27;12.90;64.40
65568;DHT22;52211;50.154;8.682;2023-12-28T16:39:57;12.90;64.40
65568;DHT22;52211;50.154;8.682;2023-12-28T16:42:26;12.80;64.40
65568;DHT22;52211;50.154;8.682;2023-12-28T16:44:53;12.80;64.40
65568;DHT22;52211;50.154;8.682;2023-12-28T16:47:20;12.90;64.50
65568;DHT22;52211;50.154;8.682;2023-12-28T16:49:47;12.80;64.50
65568;DHT22;52211;50.154;8.682;2023-12-28T16:52:16;13.80;65.00
65568;DHT22;52211;50.154;8.682;2023-12-28T16:54:48;12.70;64.50
65568;DHT22;52211;50.154;8.682;2023-12-28T16:57:18;12.70;64.50
65568;DHT22;52211;50.154;8.682;2023-12-28T16:59:47;12.60;64.50
65568;DHT22;52211;50.154;8.682;2023-12-28T17:02:32;12.60;64.50
65568;DHT22;52211;50.154;8.682;2023-12-28T17:05:02;12.60;64.50
65568;DHT22;52211;50.154;8.682;2023-12-28T17:07:32;12.50;64.50
65568;DHT22;52211;50.154;8.682;2023-12-28T17:10:02;12.50;64.50
65568;DHT22;52211;50.154;8.682;2023-12-28T17:12:37;12.50;64.60
65568;DHT22;52211;50.154;8.682;2023-12-28T17:15:06;12.50;64.70
65568;DHT22;52211;50.154;8.682;2023-12-28T17:17:37;12.40;64.70
65568;DHT22;52211;50.154;8.682;2023-12-28T17:20:05;12.40;64.70
65568;DHT22;52211;50.154;8.682;2023-12-28T17:22:47;12.30;64.70
65568;DHT22;52211;50.154;8.682;2023-12-28T17:28:14;12.20;64.80
65568;DHT22;52211;50.154;8.682;2023-12-28T17:30:46;12.30;64.80
65568;DHT22;52211;50.154;8.682;2023-12-28T17:33:16;12.20;64.80
65568;DHT22;52211;50.154;8.682;2023-12-28T17:35:49;12.20;64.80
65568;DHT22;52211;50.154;8.682;2023-12-28T17:38:23;12.20;65.00
65568;DHT22;52211;50.154;8.682;2023-12-28T17:40:54;12.20;65.00
65568;DHT22;52211;50.154;8.682;2023-12-28T17:43:39;12.20;65.00
65568;DHT22;52211;50.154;8.682;2023-12-28T17:49:29;12.20;65.20
65568;DHT22;52211;50.154;8.682;2023-12-28T17:51:59;12.10;65.10
65568;DHT22;52211;50.154;8.682;2023-12-28T17:54:30;12.10;65.00
65568;DHT22;52211;50.154;8.682;2023-12-28T17:56:59;12.00;65.00
65568;DHT22;52211;50.154;8.682;2023-12-28T17:59:30;12.00;65.10
65568;DHT22;52211;50.154;8.682;2023-12-28T18:01:59;12.00;65.10
65568;DHT22;52211;50.154;8.682;2023-12-28T18:04:31;11.90;65.10
65568;DHT22;52211;50.154;8.682;2023-12-28T18:06:58;11.90;65.20
65568;DHT22;52211;50.154;8.682;2023-12-28T18:09:27;11.90;65.30
65568;DHT22;52211;50.154;8.682;2023-12-28T18:11:59;11.80;65.20
65568;DHT22;52211;50.154;8.682;2023-12-28T18:14:26;11.80;65.30
65568;DHT22;52211;50.154;8.682;2023-12-28T18:16:53;11.80;65.40
65568;DHT22;52211;50.154;8.682;2023-12-28T18:19:21;11.80;65.40
65568;DHT22;52211;50.154;8.682;2023-12-28T18:21:49;11.70;65.40
65568;DHT22;52211;50.154;8.682;2023-12-28T18:24:19;11.70;65.40
65568;DHT22;52211;50.154;8.682;2023-12-28T18:26:46;11.70;65.50
65568;DHT22;52211;50.154;8.682;2023-12-28T18:29:18;11.70;65.50
65568;DHT22;52211;50.154;8.682;2023-12-28T18:31:45;11.70;65.70
65568;DHT22;52211;50.154;8.682;2023-12-28T18:34:15;11.70;65.60
65568;DHT22;52211;50.154;8.682;2023-12-28T18:36:47;11.70;65.70
65568;DHT22;52211;50.154;8.682;2023-12-28T18:39:21;11.70;65.70
65568;DHT22;52211;50.154;8.682;2023-12-28T18:41:56;11.60;65.60
65568;DHT22;52211;50.154;8.682;2023-12-28T18:44:28;11.70;65.70
65568;DHT22;52211;50.154;8.682;2023-12-28T18:47:03;11.70;65.80
65568;DHT22;52211;50.154;8.682;2023-12-28T18:49:31;11.70;65.80
65568;DHT22;52211;50.154;8.682;2023-12-28T18:52:01;11.70;65.80
65568;DHT22;52211;50.154;8.682;2023-12-28T18:54:35;11.70;65.80
65568;DHT22;52211;50.154;8.682;2023-12-28T18:57:05;11.70;65.90
65568;DHT22;52211;50.154;8.682;2023-12-28T18:59:34;11.60;65.80
65568;DHT22;52211;50.154;8.682;2023-12-28T19:02:03;11.70;65.90
65568;DHT22;52211;50.154;8.682;2023-12-28T19:04:35;11.70;65.90
65568;DHT22;52211;50.154;8.682;2023-12-28T19:07:07;11.60;65.80
65568;DHT22;52211;50.154;8.682;2023-12-28T19:09:36;11.70;65.90
65568;DHT22;52211;50.154;8.682;2023-12-28T19:12:08;11.70;65.90
65568;DHT22;52211;50.154;8.682;2023-12-28T19:14:40;11.60;65.80
65568;DHT22;52211;50.154;8.682;2023-12-28T19:17:10;11.70;66.00
65568;DHT22;52211;50.154;8.682;2023-12-28T19:19:37;11.70;65.90
65568;DHT22;52211;50.154;8.682;2023-12-28T19:22:07;11.60;65.90
65568;DHT22;52211;50.154;8.682;2023-12-28T19:24:34;11.70;66.00
65568;DHT22;52211;50.154;8.682;2023-12-28T19:27:06;11.70;66.10
65568;DHT22;52211;50.154;8.682;2023-12-28T19:29:35;11.70;66.10
65568;DHT22;52211;50.154;8.682;2023-12-28T19:32:02;11.70;66.10
65568;DHT22;52211;50.154;8.682;2023-12-28T19:34:29;11.70;66.10
65568;DHT22;52211;50.154;8.682;2023-12-28T19:37:01;11.80;66.10
65568;DHT22;52211;50.154;8.682;2023-12-28T19:39:33;11.80;66.10
65568;DHT22;52211;50.154;8.682;2023-12-28T19:42:00;11.80;66.20
65568;DHT22;52211;50.154;8.682;2023-12-28T19:44:29;11.80;66.10
65568;DHT22;52211;50.154;8.682;2023-12-28T19:46:56;11.70;66.10
65568;DHT22;52211;50.154;8.682;2023-12-28T19:49:23;11.80;66.10
65568;DHT22;52211;50.154;8.682;2023-12-28T19:51:56;11.80;66.10
65568;DHT22;52211;50.154;8.682;2023-12-28T19:54:25;11.80;66.10
65568;DHT22;52211;50.154;8.682;2023-12-28T19:56:59;11.80;66.20
65568;DHT22;52211;50.154;8.682;2023-12-28T19:59:26;11.80;66.20
65568;DHT22;52211;50.154;8.682;2023-12-28T20:01:55;11.80;66.30
65568;DHT22;52211;50.154;8.682;2023-12-28T20:04:26;11.80;66.30
65568;DHT22;52211;50.154;8.682;2023-12-28T20:06:55;11.80;66.40
65568;DHT22;52211;50.154;8.682;2023-12-28T20:09:23;11.80;66.40
65568;DHT22;52211;50.154;8.682;2023-12-28T20:11:52;11.80;66.40
65568;DHT22;52211;50.154;8.682;2023-12-28T20:14:24;11.80;66.50
65568;DHT22;52211;50.154;8.682;2023-12-28T20:16:51;11.80;66.50
65568;DHT22;52211;50.154;8.682;2023-12-28T20:19:18;11.80;66.40
65568;DHT22;52211;50.154;8.682;2023-12-28T20:21:51;11.90;66.60
65568;DHT22;52211;50.154;8.682;2023-12-28T20:24:22;11.90;66.50
65568;DHT22;52211;50.154;8.682;2023-12-28T20:26:58;11.90;66.40
65568;DHT22;52211;50.154;8.682;2023-12-28T20:29:29;11.90;66.40
65568;DHT22;52211;50.154;8.682;2023-12-28T20:31:56;11.90;66.40
65568;DHT22;52211;50.154;8.682;2023-12-28T20:34:25;11.90;66.40
65568;DHT22;52211;50.154;8.682;2023-12-28T20:36:53;12.00;66.50
65568;DHT22;52211;50.154;8.682;2023-12-28T20:39:20;12.00;66.40
65568;DHT22;52211;50.154;8.682;2023-12-28T20:41:56;12.00;66.50
65568;DHT22;52211;50.154;8.682;2023-12-28T20:44:25;11.90;66.50
65568;DHT22;52211;50.154;8.682;2023-12-28T20:46:52;12.00;66.50
65568;DHT22;52211;50.154;8.682;2023-12-28T20:49:19;12.00;66.50
65568;DHT22;52211;50.154;8.682;2023-12-28T20:52:07;12.00;66.60
65568;DHT22;52211;50.154;8.682;2023-12-28T20:54:34;12.00;66.60
65568;DHT22;52211;50.154;8.682;2023-12-28T20:57:03;12.10;66.60
65568;DHT22;52211;50.154;8.682;2023-12-28T20:59:32;12.00;66.60
65568;DHT22;52211;50.154;8.682;2023-12-28T21:02:03;12.00;66.60
65568;DHT22;52211;50.154;8.682;2023-12-28T21:04:34;12.00;66.60
65568;DHT22;52211;50.154;8.682;2023-12-28T21:07:06;12.10;66.80
65568;DHT22;52211;50.154;8.682;2023-12-28T21:09:36;12.10;66.70
65568;DHT22;52211;50.154;8.682;2023-12-28T21:12:07;12.10;66.70
65568;DHT22;52211;50.154;8.682;2023-12-28T21:14:38;12.10;66.70
65568;DHT22;52211;50.154;8.682;2023-12-28T21:17:09;12.20;66.80
65568;DHT22;52211;50.154;8.682;2023-12-28T21:19:38;12.20;66.80
65568;DHT22;52211;50.154;8.682;2023-12-28T21:22:14;12.10;66.80
65568;DHT22;52211;50.154;8.682;2023-12-28T21:24:46;12.10;66.70
65568;DHT22;52211;50.154;8.682;2023-12-28T21:27:15;12.20;66.80
65568;DHT22;52211;50.154;8.682;2023-12-28T21:29:46;12.20;66.80
65568;DHT22;52211;50.154;8.682;2023-12-28T21:32:13;12.20;66.80
65568;DHT22;52211;50.154;8.682;2023-12-28T21:34:46;12.10;66.70
65568;DHT22;52211;50.154;8.682;2023-12-28T21:37:15;12.10;66.70
65568;DHT22;52211;50.154;8.682;2023-12-28T21:39:44;12.20;66.80
65568;DHT22;52211;50.154;8.682;2023-12-28T21:42:14;12.20;66.90
65568;DHT22;52211;50.154;8.682;2023-12-28T21:44:40;12.10;66.90
65568;DHT22;52211;50.154;8.682;2023-12-28T21:47:07;12.10;67.00
65568;DHT22;52211;50.154;8.682;2023-12-28T21:49:43;12.10;67.00
65568;DHT22;52211;50.154;8.682;2023-12-28T21:52:13;12.10;67.00
65568;DHT22;52211;50.154;8.682;2023-12-28T21:54:43;12.10;67.00
65568;DHT22;52211;50.154;8.682;2023-12-28T21:57:17;12.10;67.00
65568;DHT22;52211;50.154;8.682;2023-12-28T21:59:50;12.20;67.10
65568;DHT22;52211;50.154;8.682;2023-12-28T22:02:18;12.20;67.10
65568;DHT22;52211;50.154;8.682;2023-12-28T22:04:50;12.10;67.10
65568;DHT22;52211;50.154;8.682;2023-12-28T22:07:19;12.10;67.20
65568;DHT22;52211;50.154;8.682;2023-12-28T22:09:48;12.20;67.20
65568;DHT22;52211;50.154;8.682;2023-12-28T22:12:16;12.10;67.20
65568;DHT22;52211;50.154;8.682;2023-12-28T22:14:46;12.10;67.20
65568;DHT22;52211;50.154;8.682;2023-12-28T22:17:13;12.10;67.20
65568;DHT22;52211;50.154;8.682;2023-12-28T22:19:44;12.10;67.30
65568;DHT22;52211;50.154;8.682;2023-12-28T22:22:14;12.10;67.30
65568;DHT22;52211;50.154;8.682;2023-12-28T22:24:43;12.10;67.30
65568;DHT22;52211;50.154;8.682;2023-12-28T22:27:12;12.10;67.30
65568;DHT22;52211;50.154;8.682;2023-12-28T22:29:41;12.20;67.40
65568;DHT22;52211;50.154;8.682;2023-12-28T22:32:17;12.20;67.40
65568;DHT22;52211;50.154;8.682;2023-12-28T22:34:49;12.20;67.50
65568;DHT22;52211;50.154;8.682;2023-12-28T22:37:19;12.30;67.50
65568;DHT22;52211;50.154;8.682;2023-12-28T22:39:46;12.20;67.40
65568;DHT22;52211;50.154;8.682;2023-12-28T22:42:15;12.20;67.40
65568;DHT22;52211;50.154;8.682;2023-12-28T22:44:45;12.20;67.40
65568;DHT22;52211;50.154;8.682;2023-12-28T22:47:11;12.20;67.40
65568;DHT22;52211;50.154;8.682;2023-12-28T22:49:38;12.20;67.40
65568;DHT22;52211;50.154;8.682;2023-12-28T22:52:06;12.20;67.40
65568;DHT22;52211;50.154;8.682;2023-12-28T22:54:42;12.30;67.50
65568;DHT22;52211;50.154;8.682;2023-12-28T22:57:16;12.20;67.50
65568;DHT22;52211;50.154;8.682;2023-12-28T22:59:43;12.30;67.60
65568;DHT22;52211;50.154;8.682;2023-12-28T23:02:11;12.30;67.60
65568;DHT22;52211;50.154;8.682;2023-12-28T23:04:41;12.30;67.50
65568;DHT22;52211;50.154;8.682;2023-12-28T23:07:23;12.30;67.50
65568;DHT22;52211;50.154;8.682;2023-12-28T23:09:54;12.40;67.50
65568;DHT22;52211;50.154;8.682;2023-12-28T23:12:21;12.40;67.50
65568;DHT22;52211;50.154;8.682;2023-12-28T23:14:53;12.40;67.50
65568;DHT22;52211;50.154;8.682;2023-12-28T23:17:26;12.40;67.50
65568;DHT22;52211;50.154;8.682;2023-12-28T23:19:55;12.40;67.50
65568;DHT22;52211;50.154;8.682;2023-12-28T23:22:22;12.40;67.50
65568;DHT22;52211;50.154;8.682;2023-12-28T23:24:49;12.40;67.50
65568;DHT22;52211;50.154;8.682;2023-12-28T23:27:21;12.40;67.50
65568;DHT22;52211;50.154;8.682;2023-12-28T23:29:50;12.40;67.40
65568;DHT22;52211;50.154;8.682;2023-12-28T23:32:20;12.40;67.40
65568;DHT22;52211;50.154;8.682;2023-12-28T23:34:49;12.40;67.40
65568;DHT22;52211;50.154;8.682;2023-12-28T23:37:20;12.40;67.30
65568;DHT22;52211;50.154;8.682;2023-12-28T23:39:47;12.30;67.30
65568;DHT22;52211;50.154;8.682;2023-12-28T23:42:17;12.40;67.30
65568;DHT22;52211;50.154;8.682;2023-12-28T23:44:46;12.40;67.30
65568;DHT22;52211;50.154;8.682;2023-12-28T23:47:15;12.40;67.30
65568;DHT22;52211;50.154;8.682;2023-12-28T23:49:44;12.30;67.20
65568;DHT22;52211;50.154;8.682;2023-12-28T23:52:12;12.30;67.20
65568;DHT22;52211;50.154;8.682;2023-12-28T23:54:46;12.30;67.30
65568;DHT22;52211;50.154;8.682;2023-12-28T23:57:17;12.30;67.30
65568;DHT22;52211;50.154;8.682;2023-12-28T23:59:44;12.20;67.20
